Time;durP1;ratioP1;P1;durP2;ratioP2;P2;SDS_P1;SDS_P2;PMS_P1;PMS_P2;Temp;Humidity;BMP_temperature;BMP_pressure;BME280_temperature;BME280_humidity;BME280_pressure;Samples;Min_cycle;Max_cycle;Signal;HPM_P1;HPM_P2
2023/01/06 00:02:05;;;;;;;9.43;2.25;;;;;;;10.39;100.00;101555.75;5014649;28;20034;-61
2023/01/06 00:04:31;;;;;;;6.50;1.70;;;;;;;10.03;100.00;101492.41;5014807;28;20050;-61
2023/01/06 00:06:56;;;;;;;8.85;1.83;;;;;;;10.34;100.00;101547.03;4997384;28;20112;-61
2023/01/06 00:09:21;;;;;;;4.57;1.70;;;;;;;10.03;100.00;101504.66;5014872;28;20058;-62
2023/01/06 00:11:47;;;;;;;6.03;2.15;;;;;;;10.30;100.00;101546.25;5014716;28;20042;-61
2023/01/06 00:14:12;;;;;;;6.35;2.40;;;;;;;10.29;100.00;101538.38;5014478;28;20041;-62
2023/01/06 00:16:37;;;;;;;6.22;2.75;;;;;;;10.28;100.00;101534.88;5014726;28;20084;-60
2023/01/06 00:19:03;;;;;;;5.97;3.28;;;;;;;10.31;100.00;101542.72;5014640;28;20507;-62
2023/01/06 00:21:28;;;;;;;6.25;2.80;;;;;;;9.91;100.00;101478.59;5014561;28;20581;-61
2023/01/06 00:23:54;;;;;;;6.05;2.97;;;;;;;10.18;100.00;101522.81;5014423;28;20041;-61
2023/01/06 00:26:19;;;;;;;6.90;3.00;;;;;;;10.24;100.00;101527.09;4996720;28;20038;-61
2023/01/06 00:28:44;;;;;;;10.10;3.35;;;;;;;9.92;100.00;101478.59;4997117;28;20030;-61
2023/01/06 00:31:12;;;;;;;8.25;3.53;;;;;;;9.99;100.00;101495.09;4996734;28;20037;-61
2023/01/06 00:33:38;;;;;;;5.78;3.80;;;;;;;9.85;100.00;101469.06;5004339;28;20030;-60
2023/01/06 00:36:04;;;;;;;6.75;4.38;;;;;;;10.25;100.00;101520.91;5034059;28;20030;-65
2023/01/06 00:38:30;;;;;;;6.97;3.45;;;;;;;10.29;100.00;101522.59;5033718;28;20109;-62
2023/01/06 00:40:55;;;;;;;6.10;4.07;;;;;;;10.32;100.00;101504.13;5031326;28;20452;-60
2023/01/06 00:43:21;;;;;;;6.88;3.47;;;;;;;9.93;100.00;101461.03;5033591;28;20400;-61
2023/01/06 00:45:46;;;;;;;7.88;3.42;;;;;;;10.26;100.00;101526.16;5033871;28;20145;-62
2023/01/06 00:48:11;;;;;;;11.25;3.70;;;;;;;9.90;100.00;101446.19;5032487;28;20044;-61
2023/01/06 00:50:37;;;;;;;6.78;3.70;;;;;;;10.05;100.00;101487.09;5034052;28;20050;-61
2023/01/06 00:53:02;;;;;;;6.65;4.15;;;;;;;10.26;100.00;101505.09;5033734;28;20125;-61
2023/01/06 00:55:28;;;;;;;9.35;4.65;;;;;;;9.92;100.00;101440.91;5033520;28;20485;-61
2023/01/06 00:57:54;;;;;;;6.00;4.10;;;;;;;9.80;100.00;101425.38;5033797;28;20034;-62
2023/01/06 01:00:20;;;;;;;4.40;3.58;;;;;;;10.29;100.00;101506.81;5033703;28;20112;-61
2023/01/06 01:02:45;;;;;;;6.95;4.03;;;;;;;10.31;100.00;101502.38;5016116;28;20045;-62
2023/01/06 01:05:11;;;;;;;5.82;3.60;;;;;;;10.31;100.00;101503.25;5033352;28;20041;-61
2023/01/06 01:07:36;;;;;;;7.13;3.35;;;;;;;10.03;100.00;101459.97;5033703;28;20469;-61
2023/01/06 01:10:02;;;;;;;8.55;3.50;;;;;;;9.90;100.00;101440.91;5033288;28;20114;-62
2023/01/06 01:12:27;;;;;;;10.13;3.63;;;;;;;10.18;100.00;101488.63;5033469;28;20498;-62
2023/01/06 01:14:53;;;;;;;6.90;2.97;;;;;;;10.29;100.00;101499.78;5033708;28;20456;-61
2023/01/06 01:17:25;;;;;;;5.43;2.58;;;;;;;9.93;100.00;101430.34;5033207;28;20465;-60
2023/01/06 01:19:53;;;;;;;4.82;2.60;;;;;;;9.96;100.00;101432.03;5015627;28;20033;-61
2023/01/06 01:22:18;;;;;;;5.18;2.88;;;;;;;10.25;100.00;101492.84;5031872;28;20087;-61
2023/01/06 01:24:44;;;;;;;7.43;2.95;;;;;;;10.28;100.00;101479.63;5032926;28;20041;-61
2023/01/06 01:27:11;;;;;;;7.32;3.28;;;;;;;9.94;100.00;101423.31;5033180;28;20037;-61
2023/01/06 01:29:36;;;;;;;6.10;3.25;;;;;;;10.18;100.00;101470.22;5031825;28;20068;-60
2023/01/06 01:32:02;;;;;;;6.45;3.00;;;;;;;10.29;100.00;101483.13;5033044;28;20069;-61
2023/01/06 01:34:27;;;;;;;3.50;2.83;;;;;;;9.82;100.00;101407.78;5033034;28;20109;-61
2023/01/06 01:36:53;;;;;;;6.25;2.83;;;;;;;10.26;100.00;101478.81;5032679;28;20056;-62
2023/01/06 01:39:22;;;;;;;5.10;2.50;;;;;;;10.30;100.00;101488.38;5032664;28;20040;-61
2023/01/06 01:41:47;;;;;;;6.40;2.60;;;;;;;9.97;100.00;101410.13;5015172;28;20041;-61
2023/01/06 01:44:50;;;;;;;4.28;2.45;;;;;;;10.34;100.00;101470.72;5014844;28;20064;-62
2023/01/06 01:47:41;;;;;;;7.70;2.50;;;;;;;10.29;100.00;101473.47;5032557;28;20041;-62
2023/01/06 01:50:21;;;;;;;3.10;2.00;;;;;;;10.34;100.00;101452.31;5023025;28;20057;-61
2023/01/06 01:52:49;;;;;;;6.88;2.17;;;;;;;10.34;100.00;101447.91;5033827;28;20022;-61
2023/01/06 01:55:15;;;;;;;6.75;2.55;;;;;;;10.34;100.00;101445.28;5014804;28;20522;-61
2023/01/06 01:57:54;;;;;;;4.00;2.30;;;;;;;10.00;100.00;101384.63;5014639;28;20056;-61
2023/01/06 02:00:20;;;;;;;6.57;2.25;;;;;;;10.36;100.00;101448.75;5014870;28;20029;-62
2023/01/06 02:02:45;;;;;;;5.07;2.47;;;;;;;10.37;100.00;101446.97;5032564;28;20056;-61
2023/01/06 02:05:16;;;;;;;4.60;2.20;;;;;;;10.12;100.00;101397.50;5032409;28;20043;-62
2023/01/06 02:07:41;;;;;;;6.45;1.70;;;;;;;10.33;100.00;101435.69;5014486;28;20030;-63
2023/01/06 02:10:13;;;;;;;6.05;1.90;;;;;;;10.00;100.00;101382.00;5032240;28;20026;-61
2023/01/06 02:12:39;;;;;;;5.22;2.10;;;;;;;10.34;100.00;101434.75;5032082;28;20029;-60
2023/01/06 02:15:31;;;;;;;7.97;2.05;;;;;;;10.34;100.00;101440.03;5014548;28;20041;-62
2023/01/06 02:18:30;;;;;;;6.28;2.22;;;;;;;10.32;100.00;101431.31;5014380;28;20029;-60
2023/01/06 02:21:15;;;;;;;4.97;2.03;;;;;;;10.33;100.00;101421.66;5032109;28;20025;-61
2023/01/06 02:23:47;;;;;;;3.15;1.83;;;;;;;10.27;100.00;101429.69;5032103;28;20124;-62
2023/01/06 02:26:15;;;;;;;;;;;;;;;10.21;100.00;101427.19;5032413;28;20041;-63
2023/01/06 02:29:07;;;;;;;5.50;2.15;;;;;;;10.24;100.00;101449.03;5031575;28;20197;-61
2023/01/06 02:31:50;;;;;;;3.88;1.90;;;;;;;10.24;100.00;101430.63;5031616;28;20053;-61
2023/01/06 02:34:40;;;;;;;6.32;1.85;;;;;;;10.27;100.00;101406.88;5031375;28;20029;-62
2023/01/06 02:37:28;;;;;;;5.38;1.60;;;;;;;10.28;100.00;101405.94;5031878;28;20034;-62
2023/01/06 02:40:24;;;;;;;3.70;1.45;;;;;;;10.30;100.00;101395.41;5030958;28;20029;-62
2023/01/06 02:43:00;;;;;;;3.85;1.50;;;;;;;10.32;100.00;101391.84;5032172;28;20095;-62
2023/01/06 02:45:55;;;;;;;3.05;1.83;;;;;;;10.28;100.00;101384.91;5030558;28;20029;-62
2023/01/06 02:48:42;;;;;;;5.80;1.75;;;;;;;10.04;100.00;101332.81;5024350;28;20037;-62
2023/01/06 02:51:17;;;;;;;4.00;1.40;;;;;;;10.03;100.00;101320.56;5031736;28;20045;-62
2023/01/06 02:54:10;;;;;;;2.88;1.52;;;;;;;9.82;100.00;101286.84;5014189;28;20112;-62
2023/01/06 02:56:38;;;;;;;3.80;1.23;;;;;;;10.30;100.00;101375.22;5032198;28;20087;-63
2023/01/06 02:59:08;;;;;;;4.88;1.48;;;;;;;10.28;100.00;101365.63;5014361;28;20029;-61
2023/01/06 03:01:39;;;;;;;3.13;1.38;;;;;;;9.92;100.00;101298.91;5013924;28;20044;-62
2023/01/06 03:04:08;;;;;;;3.97;1.27;;;;;;;10.31;100.00;101365.53;5014989;28;20037;-62
2023/01/06 03:06:34;;;;;;;3.53;1.40;;;;;;;10.24;100.00;101341.16;5017897;28;20116;-61
2023/01/06 03:09:00;;;;;;;2.60;1.08;;;;;;;10.21;100.00;101340.34;5017944;28;20121;-61
2023/01/06 03:11:28;;;;;;;4.22;1.20;;;;;;;9.97;100.00;101290.00;5018007;28;20125;-61
2023/01/06 03:14:13;;;;;;;3.75;1.42;;;;;;;10.35;100.00;101351.44;5017661;28;20088;-60
2023/01/06 03:16:38;;;;;;;4.50;1.38;;;;;;;10.36;100.00;101340.84;5017695;28;20048;-61
2023/01/06 03:19:03;;;;;;;5.10;1.15;;;;;;;10.38;100.00;101365.38;5035681;28;20059;-61
2023/01/06 03:21:32;;;;;;;3.25;1.20;;;;;;;9.99;100.00;101293.47;5035076;28;20090;-61
2023/01/06 03:23:58;;;;;;;3.25;1.30;;;;;;;9.88;100.00;101276.19;5017602;28;20087;-63
2023/01/06 03:26:23;;;;;;;5.30;1.52;;;;;;;10.28;100.00;101323.50;5035253;28;20033;-62
2023/01/06 03:28:49;;;;;;;6.40;1.60;;;;;;;10.09;100.00;101278.34;5035011;28;20112;-62
2023/01/06 03:31:14;;;;;;;4.43;1.30;;;;;;;10.32;100.00;101339.22;5035230;28;20045;-57
2023/01/06 03:33:57;;;;;;;5.82;1.45;;;;;;;10.31;100.00;101324.31;5034919;28;20044;-62
2023/01/06 03:36:27;;;;;;;3.75;1.45;;;;;;;10.35;100.00;101333.88;5017454;28;20095;-62
2023/01/06 03:39:08;;;;;;;3.10;1.42;;;;;;;9.93;100.00;101250.66;5033940;28;20184;-60
2023/01/06 03:44:52;;;;;;;3.35;1.45;;;;;;;10.17;100.00;101286.94;5034901;28;20072;-62
2023/01/06 03:47:24;;;;;;;6.53;1.90;;;;;;;10.30;100.00;101314.72;5017383;28;20037;-62
2023/01/06 03:49:55;;;;;;;4.20;1.50;;;;;;;10.34;100.00;101313.72;5034512;28;20312;-62
2023/01/06 03:52:28;;;;;;;4.53;1.45;;;;;;;10.01;100.00;101243.47;5034818;28;20394;-63
2023/01/06 03:55:02;;;;;;;3.25;1.60;;;;;;;10.14;100.00;101268.59;5000818;28;20037;-62
2023/01/06 03:57:31;;;;;;;2.40;1.30;;;;;;;10.03;100.00;101228.50;5017059;28;20033;-63
2023/01/06 04:00:05;;;;;;;5.38;1.42;;;;;;;10.46;100.00;101302.03;5016843;28;20401;-62
2023/01/06 04:02:31;;;;;;;3.83;1.63;;;;;;;10.01;100.00;101225.06;5016928;28;20453;-63
2023/01/06 04:05:03;;;;;;;4.03;1.45;;;;;;;10.43;100.00;101307.38;5034470;28;20041;-63
2023/01/06 04:07:28;;;;;;;3.10;1.40;;;;;;;10.34;100.00;101313.72;5034588;28;20199;-61
2023/01/06 04:09:54;;;;;;;3.03;1.40;;;;;;;10.04;100.00;101246.88;5034718;28;20206;-62
2023/01/06 04:12:37;;;;;;;3.53;1.30;;;;;;;10.36;100.00;101301.38;5034286;28;20147;-61
2023/01/06 04:15:07;;;;;;;1.70;1.27;;;;;;;10.36;100.00;101293.47;5034132;28;20044;-62
2023/01/06 04:17:32;;;;;;;5.45;1.55;;;;;;;10.40;100.00;101275.84;5034123;28;20037;-61
2023/01/06 04:19:58;;;;;;;4.43;1.48;;;;;;;10.45;100.00;101310.84;5016678;28;20347;-61
2023/01/06 04:22:23;;;;;;;3.60;1.45;;;;;;;10.06;100.00;101217.91;5034357;28;20041;-61
2023/01/06 04:24:49;;;;;;;4.10;1.30;;;;;;;10.37;100.00;101241.72;5034185;28;20041;-61
2023/01/06 04:27:14;;;;;;;2.90;1.60;;;;;;;10.00;100.00;101204.91;5034194;28;20045;-62
2023/01/06 04:29:39;;;;;;;3.92;1.77;;;;;;;9.89;100.00;101189.41;5034119;28;20410;-62
2023/01/06 04:32:04;;;;;;;2.22;1.20;;;;;;;9.87;100.00;101190.31;5033920;28;20435;-62
2023/01/06 04:34:30;;;;;;;3.85;1.65;;;;;;;10.29;100.00;101257.72;5034185;28;20041;-61
2023/01/06 04:36:55;;;;;;;3.00;1.20;;;;;;;10.36;100.00;101261.06;5034122;28;20497;-61
2023/01/06 04:39:20;;;;;;;4.68;1.10;;;;;;;10.36;100.00;101253.16;5034125;28;20084;-61
2023/01/06 04:41:46;;;;;;;2.33;1.30;;;;;;;10.36;100.00;101269.81;5016131;28;20030;-61
2023/01/06 04:44:11;;;;;;;2.85;1.10;;;;;;;10.39;100.00;101264.47;5033691;28;20064;-62
2023/01/06 04:46:36;;;;;;;3.65;0.93;;;;;;;10.40;100.00;101263.56;5033820;28;20083;-62
2023/01/06 04:49:02;;;;;;;3.80;1.05;;;;;;;10.42;100.00;101240.69;5033816;28;20041;-60
2023/01/06 04:51:27;;;;;;;3.83;1.50;;;;;;;9.94;100.00;101179.63;5033720;28;20058;-62
2023/01/06 04:53:52;;;;;;;2.85;1.60;;;;;;;9.88;100.00;101181.53;5032400;28;20037;-64
2023/01/06 04:56:18;;;;;;;2.75;1.55;;;;;;;10.13;100.00;101237.94;5033632;28;20033;-58
2023/01/06 04:58:43;;;;;;;1.60;1.13;;;;;;;10.01;100.00;101231.16;5033348;28;20116;-62
2023/01/06 05:01:10;;;;;;;2.85;1.48;;;;;;;9.52;100.00;101170.97;5033401;28;20120;-63
2023/01/06 05:03:36;;;;;;;1.70;1.58;;;;;;;9.83;100.00;101228.13;5015560;28;20036;-61
2023/01/06 05:06:03;;;;;;;2.95;1.42;;;;;;;9.79;100.00;101222.06;5033618;28;20408;-62
2023/01/06 05:08:29;;;;;;;2.55;1.35;;;;;;;9.74;100.00;101218.69;5015564;28;20495;-63
2023/01/06 05:11:00;;;;;;;5.25;1.63;;;;;;;9.80;100.00;101225.56;5015733;28;20473;-61
2023/01/06 05:13:25;;;;;;;3.60;1.50;;;;;;;9.80;100.00;101241.34;5015654;28;20481;-62
2023/01/06 05:15:50;;;;;;;3.95;1.65;;;;;;;9.75;100.00;101212.50;5033129;28;20171;-61
2023/01/06 05:18:15;;;;;;;4.05;1.67;;;;;;;9.74;100.00;101230.94;5033567;28;20033;-63
2023/01/06 05:20:41;;;;;;;1.70;1.60;;;;;;;9.70;100.00;101209.13;5033291;28;20033;-62
2023/01/06 05:23:06;;;;;;;2.75;1.60;;;;;;;9.59;100.00;101209.38;5033323;28;20045;-62
2023/01/06 05:25:31;;;;;;;3.15;1.80;;;;;;;9.32;100.00;101162.69;5033103;28;20056;-61
2023/01/06 05:27:57;;;;;;;3.58;2.05;;;;;;;9.31;100.00;101163.56;5032325;28;20443;-62
2023/01/06 05:30:22;;;;;;;5.15;2.45;;;;;;;9.58;100.00;101236.53;5032940;28;20427;-62
2023/01/06 05:32:47;;;;;;;4.05;1.98;;;;;;;9.55;100.00;101219.97;5032690;28;20448;-62
2023/01/06 05:35:13;;;;;;;4.65;1.80;;;;;;;9.23;100.00;101152.38;5032680;28;20541;-61
2023/01/06 05:37:38;;;;;;;3.78;1.90;;;;;;;9.54;100.00;101208.59;5032744;28;20116;-62
2023/01/06 05:40:04;;;;;;;5.10;2.70;;;;;;;9.58;100.00;101226.03;5032750;28;20060;-63
2023/01/06 05:42:29;;;;;;;3.35;1.80;;;;;;;9.22;100.00;101162.94;5014863;28;20041;-63
2023/01/06 05:44:54;;;;;;;5.22;2.63;;;;;;;9.31;100.00;101168.81;5032544;28;20125;-63
2023/01/06 05:47:20;;;;;;;3.35;2.30;;;;;;;9.55;100.00;101219.97;5032703;28;20040;-61
2023/01/06 05:49:45;;;;;;;4.43;2.65;;;;;;;9.55;100.00;101217.34;5032413;28;20451;-62
2023/01/06 05:52:10;;;;;;;3.38;2.30;;;;;;;9.32;100.00;101188.94;5032628;28;20558;-61
2023/01/06 05:54:36;;;;;;;6.47;3.50;;;;;;;9.08;100.00;101142.19;5032780;28;20044;-62
2023/01/06 05:57:01;;;;;;;4.20;2.58;;;;;;;9.55;100.00;101223.47;5032381;28;20037;-62
2023/01/06 05:59:26;;;;;;;3.40;2.58;;;;;;;9.23;100.00;101168.13;5032498;28;20042;-62
2023/01/06 06:01:52;;;;;;;4.35;2.38;;;;;;;9.52;100.00;101220.91;5021612;28;20052;-62
2023/01/06 06:04:17;;;;;;;5.28;2.58;;;;;;;9.43;100.00;101215.84;4999220;28;20454;-62
2023/01/06 06:06:42;;;;;;;5.95;2.03;;;;;;;9.53;100.00;101222.66;4993345;28;20057;-61
2023/01/06 06:09:08;;;;;;;3.92;2.95;;;;;;;9.53;100.00;101227.91;5011810;28;20030;-63
2023/01/06 06:11:33;;;;;;;4.13;2.05;;;;;;;9.45;100.00;101229.84;5011702;28;20030;-64
2023/01/06 06:13:59;;;;;;;4.72;3.05;;;;;;;9.44;100.00;101228.09;5012209;28;20038;-63
2023/01/06 06:16:26;;;;;;;4.70;2.65;;;;;;;9.55;100.00;101257.63;5012200;28;20038;-63
2023/01/06 06:18:53;;;;;;;5.25;2.67;;;;;;;9.27;100.00;101210.97;5012491;28;21217;-64
2023/01/06 06:21:24;;;;;;;7.22;2.97;;;;;;;9.23;100.00;101227.69;5012247;28;20473;-64
2023/01/06 06:23:52;;;;;;;5.72;2.67;;;;;;;9.59;100.00;101280.34;4994840;28;20038;-63
2023/01/06 06:26:18;;;;;;;2.78;2.58;;;;;;;9.45;100.00;101257.88;5012232;28;20029;-65
2023/01/06 06:28:43;;;;;;;4.05;1.85;;;;;;;9.51;100.00;101274.38;5012109;28;20045;-64
2023/01/06 06:31:14;;;;;;;4.05;2.33;;;;;;;9.55;100.00;101291.81;4993535;28;20050;-61
2023/01/06 06:33:40;;;;;;;4.65;2.65;;;;;;;9.32;100.00;101227.50;4993759;28;20061;-62
2023/01/06 06:36:16;;;;;;;5.32;2.83;;;;;;;9.55;100.00;101291.81;5011909;28;20076;-63
2023/01/06 06:38:45;;;;;;;8.25;3.00;;;;;;;9.59;100.00;101284.72;5011807;28;20041;-65
2023/01/06 06:41:11;;;;;;;4.63;2.97;;;;;;;9.33;100.00;101245.88;5012059;28;20503;-64
2023/01/06 06:43:36;;;;;;;4.63;3.00;;;;;;;9.21;100.00;101225.09;5011918;28;20080;-63
2023/01/06 06:46:01;;;;;;;6.28;2.88;;;;;;;9.58;100.00;101306.63;5012145;28;20038;-63
2023/01/06 06:48:28;;;;;;;3.53;2.58;;;;;;;9.55;100.00;101298.81;4994659;28;20038;-62
2023/01/06 06:51:10;;;;;;;7.95;2.22;;;;;;;9.18;100.00;101240.91;5012176;28;20046;-62
2023/01/06 06:53:36;;;;;;;8.30;2.60;;;;;;;9.48;100.00;101295.47;4978207;28;20030;-63
2023/01/06 06:56:03;;;;;;;7.93;2.15;;;;;;;9.19;100.00;101237.41;5011854;28;20060;-61
2023/01/06 06:58:28;;;;;;;8.82;3.17;;;;;;;9.53;100.00;101305.88;4994417;28;20101;-64
2023/01/06 07:00:53;;;;;;;9.05;2.65;;;;;;;9.59;100.00;101311.88;5012102;28;20158;-61
2023/01/06 07:03:21;;;;;;;10.45;2.90;;;;;;;9.38;100.00;101290.41;5011964;28;20468;-62
2023/01/06 07:05:47;;;;;;;7.68;2.60;;;;;;;9.24;100.00;101261.81;5011932;28;20092;-62
2023/01/06 07:08:13;;;;;;;6.13;2.08;;;;;;;9.52;100.00;101310.25;5011893;28;20026;-62
2023/01/06 07:10:38;;;;;;;6.47;2.33;;;;;;;9.16;100.00;101276.88;4994120;28;20455;-62
2023/01/06 07:13:04;;;;;;;11.68;2.50;;;;;;;9.18;100.00;101287.31;5011736;28;20030;-63
2023/01/06 07:15:29;;;;;;;14.20;2.55;;;;;;;9.41;100.00;101342.91;4994287;28;20041;-63
2023/01/06 07:17:58;;;;;;;10.43;2.50;;;;;;;9.26;100.00;101333.56;5011703;28;20385;-63
2023/01/06 07:20:24;;;;;;;12.32;3.08;;;;;;;9.35;100.00;101367.53;5012040;28;20084;-62
2023/01/06 07:22:49;;;;;;;13.70;3.35;;;;;;;9.04;100.00;101324.38;5011874;28;20038;-62
2023/01/06 07:25:14;;;;;;;18.25;2.80;;;;;;;8.89;100.00;101308.88;5011954;28;20100;-63
2023/01/06 07:27:40;;;;;;;12.52;2.97;;;;;;;9.30;100.00;101382.53;5011788;28;20056;-62
2023/01/06 07:30:06;;;;;;;16.05;3.17;;;;;;;9.32;100.00;101382.47;5012069;28;20030;-62
2023/01/06 07:32:31;;;;;;;18.55;3.92;;;;;;;9.32;100.00;101385.97;4993952;28;20422;-63
2023/01/06 07:34:57;;;;;;;17.13;3.70;;;;;;;9.34;100.00;101381.56;5026773;28;20054;-62
2023/01/06 07:37:22;;;;;;;22.05;3.33;;;;;;;8.91;100.00;101326.34;5011482;28;20395;-62
2023/01/06 07:39:47;;;;;;;17.95;3.45;;;;;;;9.24;100.00;101392.28;5011353;28;20038;-62
2023/01/06 07:42:12;;;;;;;15.32;3.00;;;;;;;9.15;100.00;101392.44;5011711;28;20034;-62
2023/01/06 07:44:38;;;;;;;17.40;4.40;;;;;;;8.71;100.00;101335.44;5011559;28;20037;-62
2023/01/06 07:47:03;;;;;;;16.00;3.00;;;;;;;8.83;100.00;101386.00;5011442;28;20363;-62
2023/01/06 07:49:28;;;;;;;14.40;3.58;;;;;;;8.56;100.00;101359.31;5011455;28;20109;-62
2023/01/06 07:51:54;;;;;;;12.63;3.08;;;;;;;8.77;100.00;101411.47;5014817;28;20046;-63
2023/01/06 07:54:19;;;;;;;19.77;3.83;;;;;;;8.65;100.00;101412.53;4997150;28;20481;-63
2023/01/06 07:56:44;;;;;;;19.00;2.75;;;;;;;8.58;100.00;101410.03;5014842;28;20124;-62
2023/01/06 07:59:10;;;;;;;17.17;3.20;;;;;;;8.47;100.00;101407.53;5015067;28;20112;-62
2023/01/06 08:01:35;;;;;;;21.52;2.33;;;;;;;8.36;100.00;101402.47;5014708;28;20113;-62
2023/01/06 08:04:01;;;;;;;13.70;2.47;;;;;;;8.24;100.00;101409.59;5014775;28;20064;-62
2023/01/06 08:06:26;;;;;;;14.75;2.78;;;;;;;7.93;100.00;101378.56;5014720;28;20034;-62
2023/01/06 08:08:51;;;;;;;15.25;2.80;;;;;;;7.92;100.00;101387.28;5014614;28;20396;-62
2023/01/06 08:11:17;;;;;;;15.50;2.28;;;;;;;8.14;100.00;101431.59;5014719;28;20026;-63
2023/01/06 08:13:42;;;;;;;11.52;2.08;;;;;;;8.20;100.00;101444.63;4996984;28;20078;-62
2023/01/06 08:16:09;;;;;;;16.65;2.42;;;;;;;7.84;100.00;101397.03;5014703;28;20077;-61
2023/01/06 08:18:34;;;;;;;13.38;3.10;;;;;;;7.73;100.00;101396.28;4997114;28;20034;-62
2023/01/06 08:21:06;;;;;;;10.10;2.20;;;;;;;8.03;100.00;101475.41;4995774;28;20041;-62
2023/01/06 08:23:31;;;;;;;;;;;;;;;7.98;100.00;101479.84;5013132;28;20033;-62
2023/01/06 08:26:18;;;;;;;10.70;2.20;;;;;;;7.91;100.00;101479.03;4995011;28;20288;-62
2023/01/06 08:28:44;;;;;;;14.43;2.17;;;;;;;7.88;100.00;101473.88;5013295;28;20050;-63
2023/01/06 08:31:12;;;;;;;11.65;2.22;;;;;;;7.89;100.00;101486.94;5013339;28;20045;-66
2023/01/06 08:33:38;;;;;;;13.10;2.55;;;;;;;7.57;100.00;101436.63;5013765;28;20441;-63
2023/01/06 08:36:05;;;;;;;12.35;3.40;;;;;;;7.91;100.00;101490.41;5012930;28;20030;-62
2023/01/06 08:38:32;;;;;;;7.95;1.92;;;;;;;7.53;100.00;101419.19;5012223;28;20108;-62
2023/01/06 08:40:58;;;;;;;18.38;2.50;;;;;;;7.52;100.00;101401.75;5013250;28;20490;-63
2023/01/06 08:43:24;;;;;;;11.10;2.38;;;;;;;7.85;100.00;101479.16;5013094;28;20040;-61
2023/01/06 08:45:50;;;;;;;17.20;2.83;;;;;;;7.49;100.00;101412.28;4979512;28;20077;-61
2023/01/06 08:48:15;;;;;;;9.55;2.17;;;;;;;7.49;100.00;101417.50;5013125;28;20061;-60
2023/01/06 08:50:41;;;;;;;8.02;2.10;;;;;;;7.91;100.00;101498.25;5012766;28;20058;-62
2023/01/06 08:53:07;;;;;;;6.35;1.67;;;;;;;7.51;100.00;101423.59;5028287;28;20068;-61
2023/01/06 08:55:32;;;;;;;7.65;1.75;;;;;;;8.03;100.00;101507.75;5012915;28;20040;-61
2023/01/06 08:57:58;;;;;;;6.95;1.92;;;;;;;8.07;100.00;101505.97;5012715;28;20038;-62
2023/01/06 09:00:23;;;;;;;6.78;1.83;;;;;;;7.69;100.00;101446.97;5012527;28;20030;-61
2023/01/06 09:02:49;;;;;;;8.23;1.73;;;;;;;8.06;100.00;101515.56;4993992;28;20054;-61
2023/01/06 09:05:15;;;;;;;5.55;1.17;;;;;;;8.13;100.00;101525.13;5012413;28;20045;-61
2023/01/06 09:07:40;;;;;;;8.32;2.10;;;;;;;7.69;100.00;101452.22;5012604;28;20485;-61
2023/01/06 09:10:06;;;;;;;7.95;1.92;;;;;;;7.69;100.00;101448.72;5012444;28;20034;-61
2023/01/06 09:12:32;;;;;;;9.90;1.75;;;;;;;8.11;100.00;101523.41;4995563;28;20049;-60
2023/01/06 09:14:57;;;;;;;6.60;1.80;;;;;;;8.23;100.00;101554.75;5013584;28;20037;-63
2023/01/06 09:17:26;;;;;;;9.68;2.65;;;;;;;8.19;100.00;101553.03;5012616;28;20400;-62
2023/01/06 09:19:51;;;;;;;8.82;1.73;;;;;;;8.26;100.00;101544.22;5012495;28;20045;-61
2023/01/06 09:22:16;;;;;;;11.57;1.85;;;;;;;7.96;100.00;101489.50;5012626;28;20030;-61
2023/01/06 09:24:42;;;;;;;5.25;1.80;;;;;;;7.82;100.00;101473.94;4994684;28;20037;-62
2023/01/06 09:27:07;;;;;;;14.80;1.70;;;;;;;8.11;100.00;101534.78;4994630;28;20041;-62
2023/01/06 09:29:32;;;;;;;10.32;2.00;;;;;;;8.04;100.00;101509.50;5012143;28;20105;-62
2023/01/06 09:31:58;;;;;;;6.47;1.50;;;;;;;8.25;100.00;101551.22;5011911;28;20130;-61
2023/01/06 09:34:23;;;;;;;6.43;1.80;;;;;;;8.14;100.00;101523.38;5011950;28;20049;-61
2023/01/06 09:36:48;;;;;;;12.48;1.95;;;;;;;7.80;100.00;101465.19;5012293;28;20038;-60
2023/01/06 09:39:14;;;;;;;4.82;1.95;;;;;;;7.78;100.00;101461.72;5011898;28;20030;-63
2023/01/06 09:42:08;;;;;;;11.13;2.13;;;;;;;8.30;100.00;101557.28;5012138;28;20037;-63
2023/01/06 09:44:45;;;;;;;9.20;2.35;;;;;;;8.31;100.00;101556.41;5004504;28;20313;-62
2023/01/06 09:47:13;;;;;;;7.30;1.60;;;;;;;8.34;100.00;101572.13;4994517;28;20045;-63
2023/01/06 09:49:45;;;;;;;7.10;2.03;;;;;;;8.34;100.00;101568.63;4994278;28;20122;-62
2023/01/06 09:52:10;;;;;;;9.25;1.83;;;;;;;8.38;100.00;101584.31;5011572;28;20041;-61
2023/01/06 09:54:46;;;;;;;6.22;1.30;;;;;;;8.26;100.00;101568.66;5011236;28;20045;-61
2023/01/06 09:57:27;;;;;;;6.45;1.58;;;;;;;8.45;100.00;101575.50;4993858;28;20683;-60
2023/01/06 09:59:57;;;;;;;8.43;1.65;;;;;;;8.53;100.00;101571.88;4994101;28;20034;-63
2023/01/06 10:02:32;;;;;;;11.27;1.75;;;;;;;8.17;100.00;101507.59;4993837;28;20474;-61
2023/01/06 10:04:58;;;;;;;9.02;1.60;;;;;;;8.25;100.00;101514.50;4993775;28;20041;-62
2023/01/06 10:07:27;;;;;;;3.35;1.08;;;;;;;8.71;100.00;101601.41;5011539;28;20052;-61
2023/01/06 10:10:31;;;;;;;5.75;1.40;;;;;;;8.73;100.00;101607.50;4994082;28;20415;-63
2023/01/06 10:13:23;;;;;;;9.30;1.45;;;;;;;8.45;100.00;101546.63;5011290;28;20023;-61
2023/01/06 10:16:12;;;;;;;4.63;0.95;;;;;;;8.73;100.00;101599.63;4993140;28;20034;-61
2023/01/06 10:19:11;;;;;;;8.50;2.28;;;;;;;8.84;100.00;101592.47;4992961;28;20103;-61
2023/01/06 10:21:51;;;;;;;6.32;1.75;;;;;;;8.54;100.00;101539.53;5010313;28;20084;-61
2023/01/06 10:25:01;;;;;;;12.02;1.80;;;;;;;9.06;100.00;101624.56;4992974;28;20396;-62
2023/01/06 10:27:41;;;;;;;5.53;1.55;;;;;;;9.14;100.00;101585.91;4930198;29;20827;-62
2023/01/06 10:30:17;;;;;;;8.68;1.58;;;;;;;8.85;100.00;101523.31;4930930;29;20031;-64
2023/01/06 10:32:43;;;;;;;5.38;2.00;;;;;;;9.35;100.00;101601.38;4963846;28;20054;-62
2023/01/06 10:35:16;;;;;;;11.02;1.67;;;;;;;9.34;100.00;101580.38;4992148;28;20120;-62
2023/01/06 10:37:44;;;;;;;9.85;1.60;;;;;;;9.16;100.00;101523.75;4993751;28;20381;-62
2023/01/06 10:40:28;;;;;;;7.45;1.63;;;;;;;9.68;100.00;101609.63;4991870;28;20041;-62
2023/01/06 10:43:06;;;;;;;5.03;1.90;;;;;;;9.67;100.00;101599.97;4991854;28;20030;-62
2023/01/06 10:45:42;;;;;;;5.28;1.40;;;;;;;9.89;100.00;101623.28;4992220;28;20038;-62
2023/01/06 10:48:24;;;;;;;4.20;1.27;;;;;;;9.89;100.00;101630.31;5009623;28;20034;-63
2023/01/06 10:50:50;;;;;;;8.00;1.55;;;;;;;9.66;100.00;101587.75;5010064;28;20041;-63
2023/01/06 10:53:16;;;;;;;8.88;2.05;;;;;;;9.88;100.00;101618.03;5025129;28;20421;-62
2023/01/06 10:55:47;;;;;;;7.07;1.92;;;;;;;9.98;100.00;101636.25;5010060;28;20108;-64
2023/01/06 10:58:31;;;;;;;;;;;;;;;10.05;100.00;101629.13;4993096;28;20037;-62
2023/01/06 11:01:28;;;;;;;7.82;1.85;;;;;;;9.68;100.00;101557.03;5009747;28;19924;-62
2023/01/06 11:04:08;;;;;;;7.53;1.45;;;;;;;9.98;100.00;101593.31;5008812;28;20448;-62
2023/01/06 11:06:34;;;;;;;7.45;1.40;;;;;;;10.28;100.00;101648.03;5010506;28;20018;-63
2023/01/06 11:09:06;;;;;;;6.15;1.70;;;;;;;10.33;100.00;101632.16;4993557;28;20026;-63
2023/01/06 11:11:32;;;;;;;3.60;1.30;;;;;;;10.38;100.00;101625.91;5011116;28;20077;-62
2023/01/06 11:14:03;;;;;;;5.30;1.30;;;;;;;10.45;100.00;101626.69;4993264;28;20426;-62
2023/01/06 11:16:34;;;;;;;6.65;1.42;;;;;;;10.50;100.00;101633.59;5011706;28;20105;-62
2023/01/06 11:19:03;;;;;;;9.52;1.40;;;;;;;10.54;100.00;101634.38;4994308;28;20030;-61
2023/01/06 11:21:47;;;;;;;5.05;1.33;;;;;;;10.10;100.00;101550.97;4993849;28;20029;-62
2023/01/06 11:24:22;;;;;;;5.00;1.35;;;;;;;10.58;100.00;101628.16;4978083;28;20034;-62
2023/01/06 11:27:14;;;;;;;3.88;1.27;;;;;;;10.69;100.00;101631.44;4997407;28;20125;-62
2023/01/06 11:29:39;;;;;;;5.70;1.55;;;;;;;10.75;100.00;101620.78;5006405;28;20491;-63
2023/01/06 11:32:14;;;;;;;5.40;1.65;;;;;;;10.63;100.00;101585.03;5015398;28;20133;-63
2023/01/06 11:34:50;;;;;;;5.50;1.48;;;;;;;10.57;100.00;101561.47;4997114;28;20084;-62
2023/01/06 11:37:30;;;;;;;5.30;1.20;;;;;;;10.86;100.00;101592.44;4997575;28;20148;-62